createdAt,value
2019-03-25T00:00:42.344Z,6.80
2019-03-25T00:03:10.790Z,6.70
2019-03-25T00:05:39.640Z,6.70
2019-03-25T00:08:08.099Z,6.70
2019-03-25T00:10:36.902Z,6.70
2019-03-25T00:13:05.523Z,6.80
2019-03-25T00:15:34.279Z,6.60
2019-03-25T00:18:02.709Z,6.60
2019-03-25T00:20:31.195Z,6.60
2019-03-25T00:22:59.671Z,6.70
2019-03-25T00:25:28.154Z,6.70
2019-03-25T00:27:56.600Z,6.70
2019-03-25T00:30:25.377Z,6.70
2019-03-25T00:32:53.784Z,6.60
2019-03-25T00:35:22.200Z,6.60
2019-03-25T00:37:50.913Z,6.60
2019-03-25T00:40:19.810Z,6.60
2019-03-25T00:42:48.244Z,6.40
2019-03-25T00:45:16.676Z,6.40
2019-03-25T00:47:45.095Z,6.50
2019-03-25T00:50:13.836Z,6.50
2019-03-25T00:52:42.360Z,6.50
2019-03-25T00:55:10.964Z,6.50
2019-03-25T00:57:39.403Z,6.60
2019-03-25T01:00:08.957Z,6.60
2019-03-25T01:02:37.791Z,6.60
2019-03-25T01:05:06.434Z,6.60
2019-03-25T01:07:34.861Z,6.70
2019-03-25T01:10:05.590Z,6.70
2019-03-25T01:12:34.055Z,6.70
2019-03-25T01:15:02.499Z,6.90
2019-03-25T01:17:31.230Z,6.90
2019-03-25T01:20:00.020Z,6.80
2019-03-25T01:22:28.706Z,6.80
2019-03-25T01:25:01.940Z,6.80
2019-03-25T01:27:27.278Z,6.70
2019-03-25T01:29:55.689Z,6.80
2019-03-25T01:32:24.364Z,6.80
2019-03-25T01:34:52.800Z,6.80
2019-03-25T01:37:21.227Z,6.80
2019-03-25T01:39:49.909Z,6.80
2019-03-25T01:42:18.348Z,6.80
2019-03-25T01:44:46.763Z,6.70
2019-03-25T01:47:15.471Z,6.70
2019-03-25T01:49:43.893Z,6.80
2019-03-25T01:52:12.344Z,6.70
2019-03-25T01:54:41.145Z,6.70
2019-03-25T01:57:10.034Z,6.70
2019-03-25T01:59:38.822Z,6.60
2019-03-25T02:02:07.599Z,6.60
2019-03-25T02:04:36.089Z,6.60
2019-03-25T02:07:04.596Z,6.60
2019-03-25T02:09:33.358Z,6.60
2019-03-25T02:12:01.899Z,6.40
2019-03-25T02:14:30.457Z,6.40
2019-03-25T02:16:59.233Z,6.40
2019-03-25T02:19:27.756Z,6.50
2019-03-25T02:21:56.486Z,6.50
2019-03-25T02:24:24.970Z,6.50
2019-03-25T02:26:53.500Z,6.40
2019-03-25T02:29:21.966Z,6.50
2019-03-25T02:31:50.464Z,6.50
2019-03-25T02:34:18.977Z,6.40
2019-03-25T02:36:47.423Z,6.40
2019-03-25T02:39:15.969Z,6.30
2019-03-25T02:41:44.507Z,6.30
2019-03-25T02:44:13.028Z,6.30
2019-03-25T02:46:41.500Z,6.30
2019-03-25T02:49:10.019Z,6.40
2019-03-25T02:51:38.502Z,6.40
2019-03-25T02:54:07.019Z,6.40
2019-03-25T02:56:35.577Z,6.40
2019-03-25T02:59:04.158Z,6.40
2019-03-25T03:01:32.643Z,6.40
2019-03-25T03:04:01.400Z,6.40
2019-03-25T03:06:29.929Z,6.50
2019-03-25T03:08:58.460Z,6.50
2019-03-25T03:11:26.908Z,6.40
2019-03-25T03:13:55.440Z,6.40
2019-03-25T03:16:23.955Z,6.40
2019-03-25T03:18:52.472Z,6.40
2019-03-25T03:21:21.363Z,6.40
2019-03-25T03:23:49.819Z,6.40
2019-03-25T03:26:18.342Z,6.30
2019-03-25T03:28:47.121Z,6.20
2019-03-25T03:31:15.907Z,6.10
2019-03-25T03:33:44.449Z,6.00
2019-03-25T03:36:13.001Z,6.00
2019-03-25T03:38:41.546Z,5.90
2019-03-25T03:41:10.073Z,5.90
2019-03-25T03:43:38.609Z,5.90
2019-03-25T03:46:07.421Z,5.80
2019-03-25T03:48:36.333Z,5.80
2019-03-25T03:51:05.303Z,5.70
2019-03-25T03:53:34.128Z,5.70
2019-03-25T03:56:12.883Z,5.60
2019-03-25T03:58:34.479Z,5.60
2019-03-25T04:01:02.977Z,5.50
2019-03-25T04:03:31.668Z,5.40
2019-03-25T04:06:00.532Z,5.40
2019-03-25T04:08:29.081Z,5.40
2019-03-25T04:10:57.512Z,5.30
2019-03-25T04:13:25.930Z,5.30
2019-03-25T04:15:54.380Z,5.20
2019-03-25T04:18:22.807Z,5.20
2019-03-25T04:20:51.572Z,5.10
2019-03-25T04:23:19.987Z,5.20
2019-03-25T04:25:48.402Z,5.10
2019-03-25T04:28:17.107Z,5.00
2019-03-25T04:30:45.550Z,5.00
2019-03-25T04:33:13.977Z,4.90
2019-03-25T04:35:42.757Z,4.90
2019-03-25T04:38:11.432Z,4.90
2019-03-25T04:40:39.880Z,4.80
2019-03-25T04:43:08.294Z,4.80
2019-03-25T04:45:36.729Z,4.80
2019-03-25T04:48:05.155Z,4.70
2019-03-25T04:50:33.565Z,4.70
2019-03-25T04:53:02.336Z,4.70
2019-03-25T04:55:30.753Z,4.70
2019-03-25T04:57:59.512Z,4.80
2019-03-25T05:00:33.838Z,4.80
2019-03-25T05:03:02.589Z,4.70
2019-03-25T05:05:31.016Z,4.70
2019-03-25T05:07:59.485Z,4.70
2019-03-25T05:10:28.144Z,4.60
2019-03-25T05:12:56.586Z,4.70
2019-03-25T05:15:25.048Z,4.50
2019-03-25T05:17:53.492Z,4.50
2019-03-25T05:20:21.916Z,4.40
2019-03-25T05:22:50.780Z,4.50
2019-03-25T05:25:19.306Z,4.40
2019-03-25T05:27:47.724Z,4.40
2019-03-25T05:30:16.551Z,4.40
2019-03-25T05:32:45.954Z,4.40
2019-03-25T05:35:14.384Z,4.40
2019-03-25T05:37:43.093Z,4.40
2019-03-25T05:40:11.688Z,4.50
2019-03-25T05:42:40.597Z,4.50
2019-03-25T05:45:09.373Z,4.60
2019-03-25T05:47:38.148Z,4.60
2019-03-25T05:50:09.250Z,4.60
2019-03-25T05:52:37.866Z,4.70
2019-03-25T05:55:07.212Z,4.80
2019-03-25T05:57:35.659Z,4.70
2019-03-25T06:00:05.108Z,4.70
2019-03-25T06:02:33.824Z,4.80
2019-03-25T06:05:02.257Z,4.80
2019-03-25T06:07:31.001Z,4.80
2019-03-25T06:09:59.523Z,4.80
2019-03-25T06:12:28.260Z,4.80
2019-03-25T06:14:56.978Z,4.70
2019-03-25T06:17:25.743Z,4.70
2019-03-25T06:19:54.274Z,4.70
2019-03-25T06:22:23.038Z,4.60
2019-03-25T06:24:51.701Z,4.50
2019-03-25T06:27:20.137Z,4.60
2019-03-25T06:29:48.578Z,4.60
2019-03-25T06:32:16.987Z,4.60
2019-03-25T06:34:45.428Z,4.70
2019-03-25T06:37:14.240Z,4.80
2019-03-25T06:39:42.677Z,4.90
2019-03-25T06:42:11.092Z,4.90
2019-03-25T06:44:39.860Z,5.10
2019-03-25T06:47:08.303Z,5.10
2019-03-25T06:49:37.391Z,5.20
2019-03-25T06:52:05.831Z,5.20
2019-03-25T06:54:34.270Z,5.30
2019-03-25T06:57:02.718Z,5.40
2019-03-25T06:59:31.471Z,5.50
2019-03-25T07:01:59.974Z,5.50
2019-03-25T07:04:28.740Z,5.60
2019-03-25T07:06:57.152Z,5.60
2019-03-25T07:09:25.585Z,5.50
2019-03-25T07:11:54.014Z,5.50
2019-03-25T07:14:22.506Z,5.50
2019-03-25T07:16:50.931Z,5.50
2019-03-25T07:19:19.375Z,5.60
2019-03-25T07:21:47.872Z,5.60
2019-03-25T07:24:16.594Z,5.70
2019-03-25T07:26:45.389Z,5.80
2019-03-25T07:29:13.808Z,5.90
2019-03-25T07:31:42.536Z,6.00
2019-03-25T07:34:10.952Z,6.20
2019-03-25T07:36:39.374Z,6.30
2019-03-25T07:39:08.218Z,6.30
2019-03-25T07:41:36.989Z,6.30
2019-03-25T07:44:05.495Z,6.40
2019-03-25T07:46:34.248Z,6.20
2019-03-25T07:49:02.672Z,5.90
2019-03-25T07:51:31.103Z,5.90
2019-03-25T07:53:59.582Z,5.90
2019-03-25T07:56:28.400Z,5.90
2019-03-25T07:58:56.875Z,5.80
2019-03-25T08:01:25.282Z,5.80
2019-03-25T08:03:54.039Z,5.60
2019-03-25T08:06:22.512Z,5.50
2019-03-25T08:08:50.957Z,5.40
2019-03-25T08:11:19.701Z,5.20
2019-03-25T08:13:48.486Z,5.00
2019-03-25T08:16:16.962Z,4.90
2019-03-25T08:18:45.412Z,4.70
2019-03-25T08:21:13.821Z,4.60
2019-03-25T08:23:42.270Z,4.50
2019-03-25T08:26:10.978Z,4.50
2019-03-25T08:28:39.658Z,4.60
2019-03-25T08:31:08.460Z,4.70
2019-03-25T08:33:36.905Z,4.80
2019-03-25T08:36:05.474Z,4.90
2019-03-25T08:38:33.904Z,4.90
2019-03-25T08:41:02.333Z,4.90
2019-03-25T08:43:30.766Z,5.00
2019-03-25T08:45:59.247Z,5.20
2019-03-25T08:48:27.695Z,5.40
2019-03-25T08:50:56.396Z,5.70
2019-03-25T08:53:24.838Z,5.80
2019-03-25T08:55:53.249Z,5.90
2019-03-25T08:58:21.680Z,6.00
2019-03-25T09:00:50.112Z,6.00
2019-03-25T09:03:18.816Z,6.10
2019-03-25T09:05:47.505Z,6.20
2019-03-25T09:08:15.935Z,6.30
2019-03-25T09:10:44.372Z,6.40
2019-03-25T09:13:12.795Z,6.70
2019-03-25T09:15:41.536Z,6.80
2019-03-25T09:18:10.048Z,7.00
2019-03-25T09:20:38.543Z,7.10
2019-03-25T09:23:06.956Z,7.30
2019-03-25T09:25:35.660Z,7.50
2019-03-25T09:28:04.239Z,7.80
2019-03-25T09:30:54.223Z,7.80
2019-03-25T09:33:22.994Z,7.90
2019-03-25T09:35:51.553Z,8.00
2019-03-25T09:38:20.038Z,8.00
2019-03-25T09:40:48.441Z,7.80
2019-03-25T09:43:16.883Z,7.60
2019-03-25T09:45:45.636Z,7.20
2019-03-25T09:48:14.305Z,7.00
2019-03-25T09:50:43.033Z,6.70
2019-03-25T09:53:11.512Z,6.30
2019-03-25T09:55:39.945Z,5.90
2019-03-25T09:58:08.396Z,5.80
2019-03-25T10:00:36.891Z,5.80
2019-03-25T10:03:05.605Z,5.90
2019-03-25T10:05:34.037Z,6.10
2019-03-25T10:08:05.752Z,6.20
2019-03-25T10:10:34.359Z,6.30
2019-03-25T10:13:02.792Z,6.40
2019-03-25T10:15:31.506Z,6.60
2019-03-25T10:17:59.925Z,6.70
2019-03-25T10:20:28.716Z,7.00
2019-03-25T10:22:57.184Z,7.20
2019-03-25T10:25:25.685Z,7.40
2019-03-25T10:27:54.114Z,7.60
2019-03-25T10:30:23.883Z,7.70
2019-03-25T10:32:52.321Z,7.90
2019-03-25T10:35:20.995Z,7.80
2019-03-25T10:37:49.681Z,8.00
2019-03-25T10:40:18.367Z,8.10
2019-03-25T10:42:46.796Z,8.30
2019-03-25T10:45:15.375Z,8.60
2019-03-25T10:47:44.118Z,8.70
2019-03-25T10:50:13.305Z,8.70
2019-03-25T10:52:41.897Z,8.90
2019-03-25T10:55:10.805Z,9.00
2019-03-25T10:57:39.211Z,9.10
2019-03-25T11:00:08.831Z,9.30
2019-03-25T11:02:37.558Z,9.40
2019-03-25T11:05:08.027Z,9.40
2019-03-25T11:07:36.830Z,9.20
2019-03-25T11:10:09.255Z,9.10
2019-03-25T11:12:37.685Z,9.10
2019-03-25T11:15:08.904Z,9.30
2019-03-25T11:17:37.594Z,9.50
2019-03-25T11:20:08.274Z,9.90
2019-03-25T11:22:36.760Z,10.00
2019-03-25T11:25:07.200Z,10.10
2019-03-25T11:27:35.649Z,10.10
2019-03-25T11:30:06.615Z,10.10
2019-03-25T11:32:35.317Z,9.80
2019-03-25T11:35:05.902Z,8.50
2019-03-25T11:37:34.624Z,7.70
2019-03-25T11:40:05.120Z,7.40
2019-03-25T11:42:33.544Z,7.00
2019-03-25T11:45:02.023Z,6.70
2019-03-25T11:47:30.428Z,6.60
2019-03-25T11:49:58.867Z,6.60
2019-03-25T11:52:27.566Z,6.60
2019-03-25T11:54:56.255Z,6.70
2019-03-25T11:57:24.683Z,6.70
2019-03-25T11:59:53.416Z,7.00
2019-03-25T12:02:21.866Z,7.70
2019-03-25T12:04:50.297Z,9.30
2019-03-25T12:07:19.090Z,11.20
2019-03-25T12:09:47.503Z,12.20
2019-03-25T12:12:15.961Z,13.10
2019-03-25T12:14:44.727Z,13.40
2019-03-25T12:17:13.168Z,14.30
2019-03-25T12:19:41.604Z,14.70
2019-03-25T12:22:10.039Z,15.20
2019-03-25T12:24:38.456Z,16.00
2019-03-25T12:27:06.911Z,16.40
2019-03-25T12:29:35.355Z,16.60
2019-03-25T12:32:03.783Z,17.10
2019-03-25T12:34:32.329Z,17.40
2019-03-25T12:37:00.948Z,17.40
2019-03-25T12:39:29.386Z,16.80
2019-03-25T12:41:58.114Z,15.50
2019-03-25T12:44:26.532Z,14.70
2019-03-25T12:46:54.995Z,14.00
2019-03-25T12:49:23.775Z,13.10
2019-03-25T12:51:52.223Z,12.40
2019-03-25T12:54:20.646Z,11.80
2019-03-25T12:56:49.431Z,11.30
2019-03-25T12:59:17.840Z,10.90
2019-03-25T13:01:53.001Z,10.00
2019-03-25T13:04:16.711Z,9.80
2019-03-25T13:06:45.158Z,9.60
2019-03-25T13:09:13.602Z,9.70
2019-03-25T13:11:42.057Z,9.40
2019-03-25T13:14:10.936Z,9.20
2019-03-25T13:16:39.629Z,9.10
2019-03-25T13:19:08.057Z,8.90
2019-03-25T13:21:36.784Z,8.80
2019-03-25T13:24:05.225Z,8.70
2019-03-25T13:26:33.645Z,8.80
2019-03-25T13:29:02.684Z,9.00
2019-03-25T13:31:31.279Z,9.20
2019-03-25T13:33:59.734Z,9.50
2019-03-25T13:36:28.496Z,9.80
2019-03-25T13:38:58.004Z,9.80
2019-03-25T13:41:26.896Z,9.70
2019-03-25T13:43:55.576Z,9.60
2019-03-25T13:46:24.008Z,10.00
2019-03-25T13:48:52.446Z,10.30
2019-03-25T13:51:20.874Z,10.10
2019-03-25T13:53:49.300Z,10.00
2019-03-25T13:56:17.750Z,9.90
2019-03-25T13:58:46.175Z,9.80
2019-03-25T14:01:14.959Z,10.00
2019-03-25T14:03:43.736Z,10.40
2019-03-25T14:06:12.431Z,10.80
2019-03-25T14:08:40.845Z,11.70
2019-03-25T14:11:09.337Z,12.60
2019-03-25T14:13:48.496Z,14.00
2019-03-25T14:16:08.311Z,15.00
2019-03-25T14:18:36.752Z,15.50
2019-03-25T14:21:05.168Z,14.70
2019-03-25T14:23:33.596Z,13.00
2019-03-25T14:26:02.053Z,11.50
2019-03-25T14:28:30.809Z,10.80
2019-03-25T14:30:59.602Z,10.50
2019-03-25T14:33:28.027Z,10.40
2019-03-25T14:35:56.466Z,11.00
2019-03-25T14:38:24.905Z,11.50
2019-03-25T14:40:53.371Z,11.90
2019-03-25T14:43:21.817Z,12.20
2019-03-25T14:45:50.311Z,13.00
2019-03-25T14:48:19.077Z,14.00
2019-03-25T14:50:47.686Z,15.00
2019-03-25T14:53:16.129Z,15.50
2019-03-25T14:55:44.559Z,15.70
2019-03-25T14:58:14.248Z,15.80
2019-03-25T15:00:42.750Z,16.00
2019-03-25T15:03:11.501Z,15.80
2019-03-25T15:05:39.920Z,15.60
2019-03-25T15:08:08.337Z,15.20
2019-03-25T15:10:36.792Z,14.70
2019-03-25T15:13:05.248Z,14.20
2019-03-25T15:15:33.909Z,13.80
2019-03-25T15:18:02.336Z,12.90
2019-03-25T15:20:30.755Z,12.80
2019-03-25T15:22:59.195Z,13.10
2019-03-25T15:25:27.620Z,12.60
2019-03-25T15:27:56.092Z,12.30
2019-03-25T15:30:35.214Z,11.90
2019-03-25T15:32:55.016Z,11.70
2019-03-25T15:35:23.835Z,11.30
2019-03-25T15:37:52.330Z,10.90
2019-03-25T15:40:21.040Z,10.60
2019-03-25T15:42:49.521Z,10.20
2019-03-25T15:45:17.936Z,10.10
2019-03-25T15:47:47.354Z,9.80
2019-03-25T15:50:16.655Z,9.60
2019-03-25T15:52:45.077Z,9.70
2019-03-25T15:55:14.399Z,9.80
2019-03-25T15:57:43.115Z,9.70
2019-03-25T16:00:20.302Z,10.00
2019-03-25T16:02:48.818Z,11.20
2019-03-25T16:05:17.965Z,12.60
2019-03-25T16:07:46.666Z,13.80
2019-03-25T16:10:16.862Z,14.80
2019-03-25T16:12:46.016Z,15.50
2019-03-25T16:15:16.822Z,16.00
2019-03-25T16:17:45.515Z,16.50
2019-03-25T16:20:14.125Z,17.00
2019-03-25T16:22:42.885Z,17.60
2019-03-25T16:25:14.736Z,16.70
2019-03-25T16:27:43.543Z,16.10
2019-03-25T16:30:12.116Z,15.10
2019-03-25T16:32:40.544Z,14.00
2019-03-25T16:35:11.447Z,13.00
2019-03-25T16:37:39.116Z,12.40
2019-03-25T16:41:25.497Z,11.70
2019-03-25T16:43:53.926Z,11.40
2019-03-25T16:46:22.387Z,11.80
2019-03-25T16:48:51.158Z,12.50
2019-03-25T16:51:19.836Z,13.40
2019-03-25T16:53:48.521Z,13.90
2019-03-25T16:56:16.954Z,14.50
2019-03-25T16:58:45.393Z,14.20
2019-03-25T17:01:13.840Z,13.90
2019-03-25T17:03:42.277Z,13.00
2019-03-25T17:06:10.712Z,12.50
2019-03-25T17:08:39.421Z,12.20
2019-03-25T17:11:07.893Z,11.80
2019-03-25T17:13:36.706Z,11.70
2019-03-25T17:16:05.479Z,11.40
2019-03-25T17:18:34.253Z,11.60
2019-03-25T17:21:02.707Z,11.50
2019-03-25T17:23:31.441Z,11.20
2019-03-25T17:26:00.220Z,10.80
2019-03-25T17:28:28.632Z,10.70
2019-03-25T17:30:57.309Z,10.60
2019-03-25T17:33:26.091Z,10.40
2019-03-25T17:35:54.861Z,10.30
2019-03-25T17:38:23.652Z,10.10
2019-03-25T17:40:52.080Z,10.00
2019-03-25T17:43:20.569Z,9.90
2019-03-25T17:45:49.057Z,9.90
2019-03-25T17:48:17.499Z,9.60
2019-03-25T17:50:46.252Z,9.40
2019-03-25T17:53:14.691Z,9.20
2019-03-25T17:55:43.105Z,9.10
2019-03-25T17:58:11.805Z,8.90
2019-03-25T18:00:49.504Z,8.90
2019-03-25T18:03:18.288Z,8.80
2019-03-25T18:05:46.977Z,8.70
2019-03-25T18:08:15.403Z,8.80
2019-03-25T18:10:44.162Z,8.70
2019-03-25T18:13:21.904Z,8.70
2019-03-25T18:15:42.757Z,8.70
2019-03-25T18:18:11.178Z,8.70
2019-03-25T18:20:39.616Z,8.60
2019-03-25T18:23:08.299Z,8.60
2019-03-25T18:25:36.788Z,8.60
2019-03-25T18:28:05.577Z,8.60
2019-03-25T18:30:35.126Z,8.60
2019-03-25T18:33:03.636Z,8.60
2019-03-25T18:35:32.070Z,8.70
2019-03-25T18:38:00.531Z,8.60
2019-03-25T18:40:28.996Z,8.60
2019-03-25T18:42:57.405Z,8.50
2019-03-25T18:45:25.842Z,8.50
2019-03-25T18:47:54.296Z,8.40
2019-03-25T18:50:22.776Z,8.40
2019-03-25T18:52:51.256Z,8.50
2019-03-25T18:55:19.685Z,8.60
2019-03-25T18:57:48.367Z,8.60
2019-03-25T19:00:33.532Z,8.60
2019-03-25T19:03:02.205Z,8.60
2019-03-25T19:05:31.328Z,8.40
2019-03-25T19:08:02.845Z,8.30
2019-03-25T19:10:31.574Z,8.30
2019-03-25T19:12:59.993Z,8.30
2019-03-25T19:15:28.758Z,8.30
2019-03-25T19:17:57.329Z,8.40
2019-03-25T19:20:25.854Z,8.40
2019-03-25T19:22:54.279Z,8.40
2019-03-25T19:25:22.717Z,8.40
2019-03-25T19:27:51.472Z,8.40
2019-03-25T19:30:20.068Z,8.50
2019-03-25T19:32:48.613Z,8.40
2019-03-25T19:35:17.409Z,8.50
2019-03-25T19:37:45.847Z,8.40
2019-03-25T19:40:14.537Z,8.40
2019-03-25T19:42:43.027Z,8.30
2019-03-25T19:45:11.979Z,8.40
2019-03-25T19:47:40.462Z,8.30
2019-03-25T19:50:10.802Z,8.40
2019-03-25T19:52:39.254Z,8.40
2019-03-25T19:55:07.999Z,8.40
2019-03-25T19:57:36.506Z,8.30
2019-03-25T20:00:08.439Z,8.40
2019-03-25T20:02:36.933Z,8.40
2019-03-25T20:05:09.310Z,8.40
2019-03-25T20:07:38.413Z,8.40
2019-03-25T20:10:07.977Z,8.50
2019-03-25T20:12:36.508Z,8.50
2019-03-25T20:15:06.966Z,8.50
2019-03-25T20:17:35.418Z,8.50
2019-03-25T20:20:06.055Z,8.50
2019-03-25T20:22:34.544Z,8.60
2019-03-25T20:25:03.311Z,8.60
2019-03-25T20:27:31.739Z,8.50
2019-03-25T20:30:00.400Z,8.40
2019-03-25T20:32:31.848Z,8.40
2019-03-25T20:34:59.827Z,8.30
2019-03-25T20:37:28.307Z,8.10
2019-03-25T20:39:56.777Z,8.10
2019-03-25T20:42:25.208Z,8.10
2019-03-25T20:44:53.643Z,8.00
2019-03-25T20:47:22.113Z,8.00
2019-03-25T20:49:51.335Z,8.00
